createdAt,value
2022-11-25T00:03:01.606Z,4.99
2022-11-25T00:13:23.090Z,4.97
2022-11-25T00:23:44.726Z,4.91
2022-11-25T00:34:07.294Z,4.85
2022-11-25T00:44:40.472Z,4.83
2022-11-25T00:55:03.480Z,4.83
2022-11-25T01:05:25.003Z,4.84
2022-11-25T01:15:46.486Z,4.85
2022-11-25T01:26:11.331Z,4.85
2022-11-25T01:36:33.450Z,4.84
2022-11-25T01:46:54.780Z,4.86
2022-11-25T01:57:28.338Z,4.91
2022-11-25T02:07:53.112Z,5.05
2022-11-25T02:18:14.987Z,5.15
2022-11-25T02:28:37.238Z,5.21
2022-11-25T02:39:01.525Z,5.29
2022-11-25T02:49:23.000Z,5.38
2022-11-25T02:59:44.456Z,5.38
2022-11-25T03:10:06.347Z,5.47
2022-11-25T03:20:27.832Z,5.55
2022-11-25T03:30:49.295Z,5.62
2022-11-25T03:41:10.746Z,5.65
2022-11-25T03:51:32.271Z,5.71
2022-11-25T04:01:53.849Z,5.77
2022-11-25T04:12:34.028Z,5.78
2022-11-25T04:22:55.498Z,5.74
2022-11-25T04:33:16.959Z,5.69
2022-11-25T04:43:38.428Z,5.68
2022-11-25T04:53:59.878Z,5.69
2022-11-25T05:04:21.336Z,5.71
2022-11-25T05:14:43.039Z,5.73
2022-11-25T05:25:07.858Z,5.72
2022-11-25T05:35:29.310Z,5.76
2022-11-25T05:45:50.846Z,5.77
2022-11-25T05:56:12.502Z,5.77
2022-11-25T06:06:34.138Z,5.73
2022-11-25T06:16:55.631Z,5.74
2022-11-25T06:27:17.114Z,5.74
2022-11-25T06:37:39.049Z,5.73
2022-11-25T06:48:00.533Z,5.78
2022-11-25T06:58:35.405Z,5.83
2022-11-25T07:08:57.949Z,5.91
2022-11-25T07:19:19.637Z,5.97
2022-11-25T07:40:22.617Z,6.08
2022-11-25T07:50:44.285Z,6.10
2022-11-25T08:01:07.500Z,6.11
2022-11-25T08:11:31.236Z,6.18
2022-11-25T08:21:52.698Z,6.19
2022-11-25T08:32:14.257Z,6.25
2022-11-25T08:42:35.814Z,6.29
2022-11-25T08:52:57.633Z,6.39
2022-11-25T09:03:19.193Z,6.50
2022-11-25T09:13:40.933Z,6.61
2022-11-25T09:24:02.755Z,6.67
2022-11-25T09:34:24.431Z,6.80
2022-11-25T09:45:16.705Z,6.94
2022-11-25T09:55:45.215Z,6.99
2022-11-25T10:06:19.073Z,7.14
2022-11-25T10:17:10.179Z,7.31
2022-11-25T10:27:43.787Z,7.41
2022-11-25T10:38:17.410Z,7.56
2022-11-25T10:49:09.695Z,7.69
2022-11-25T10:59:39.600Z,7.82
2022-11-25T11:10:22.600Z,8.01
2022-11-25T11:20:50.297Z,8.06
2022-11-25T11:31:20.763Z,8.17
2022-11-25T11:42:27.538Z,8.36
2022-11-25T11:53:05.986Z,8.45
2022-11-25T12:03:29.509Z,8.51
2022-11-25T12:14:10.097Z,8.61
2022-11-25T12:24:49.429Z,8.76
2022-11-25T12:35:10.813Z,8.78
2022-11-25T12:45:33.415Z,8.83
2022-11-25T12:55:59.471Z,8.92
2022-11-25T13:06:39.457Z,8.96
2022-11-25T13:17:01.611Z,8.96
2022-11-25T13:27:53.552Z,9.03
2022-11-25T13:38:30.235Z,9.12
2022-11-25T13:48:51.820Z,9.16
2022-11-25T13:59:13.891Z,9.19
2022-11-25T14:10:07.576Z,9.26
2022-11-25T14:20:47.828Z,9.18
2022-11-25T14:31:22.531Z,9.12
2022-11-25T14:41:53.080Z,9.02
2022-11-25T14:52:22.215Z,8.88
2022-11-25T15:03:02.007Z,8.78
2022-11-25T15:13:29.706Z,8.66
2022-11-25T15:23:51.328Z,8.52
2022-11-25T15:34:14.623Z,8.40
2022-11-25T15:44:44.845Z,8.31
2022-11-25T15:55:31.556Z,8.18
2022-11-25T16:05:57.611Z,8.13
2022-11-25T16:16:29.932Z,8.12
2022-11-25T16:27:20.696Z,8.11
2022-11-25T16:48:24.555Z,8.13
2022-11-25T16:58:46.126Z,8.12
2022-11-25T17:09:08.419Z,8.13
2022-11-25T17:19:30.338Z,8.13
2022-11-25T17:29:52.524Z,8.13
2022-11-25T17:40:14.658Z,8.11
2022-11-25T17:50:37.310Z,8.08
2022-11-25T18:00:58.900Z,8.00
2022-11-25T18:11:22.821Z,7.83
2022-11-25T18:21:44.385Z,7.75
2022-11-25T18:32:05.881Z,7.68
2022-11-25T18:42:27.787Z,7.56
2022-11-25T18:52:49.518Z,7.46
2022-11-25T19:03:17.893Z,7.43
2022-11-25T19:13:39.441Z,7.26
2022-11-25T19:24:00.910Z,7.16
2022-11-25T19:34:45.835Z,7.07
2022-11-25T19:45:08.188Z,7.01
2022-11-25T19:55:30.001Z,6.92
2022-11-25T20:05:54.399Z,6.88
2022-11-25T20:16:25.413Z,6.81
2022-11-25T20:26:48.860Z,6.76
2022-11-25T20:37:13.668Z,6.72
2022-11-25T20:47:39.614Z,6.54
2022-11-25T20:58:20.146Z,6.46
2022-11-25T21:08:45.277Z,6.44
2022-11-25T21:19:06.807Z,6.38
2022-11-25T21:29:29.843Z,6.29
2022-11-25T21:39:51.346Z,6.24
2022-11-25T21:50:20.295Z,6.11
2022-11-25T22:00:41.768Z,6.01
2022-11-25T22:11:03.461Z,5.84
2022-11-25T22:21:25.148Z,5.84
2022-11-25T22:31:48.285Z,5.81
2022-11-25T22:42:29.649Z,5.66
2022-11-25T22:52:53.081Z,5.65
2022-11-25T23:03:21.184Z,5.51
2022-11-25T23:13:42.711Z,5.44
2022-11-25T23:24:11.803Z,5.39
2022-11-25T23:34:34.682Z,5.38
2022-11-25T23:44:56.194Z,5.26
2022-11-25T23:55:23.691Z,5.19
